Time;durP1;ratioP1;P1;durP2;ratioP2;P2;SDS_P1;SDS_P2;PMS_P1;PMS_P2;Temp;Humidity;BMP_temperature;BMP_pressure;BME280_temperature;BME280_humidity;BME280_pressure;Samples;Min_cycle;Max_cycle;Signal;HPM_P1;HPM_P2
2023/10/28 00:00:26;;;;;;;7.88;2.47;;;;;;;8.94;100.00;99402.63;4985897;28;20049;-82
2023/10/28 00:02:51;;;;;;;5.85;2.17;;;;;;;8.95;100.00;99404.31;4992493;28;20026;-83
2023/10/28 00:05:16;;;;;;;5.90;2.53;;;;;;;8.96;100.00;99406.00;4994432;28;20030;-82
2023/10/28 00:07:42;;;;;;;7.60;2.63;;;;;;;8.98;100.00;99403.34;4991708;28;20374;-83
2023/10/28 00:10:09;;;;;;;4.03;1.85;;;;;;;8.99;100.00;99401.59;4990766;28;20026;-82
2023/10/28 00:12:34;;;;;;;6.63;2.30;;;;;;;8.99;100.00;99399.00;4989766;28;20025;-85
2023/10/28 00:15:00;;;;;;;3.97;2.08;;;;;;;9.01;100.00;99403.22;4991286;28;20117;-83
2023/10/28 00:17:25;;;;;;;8.02;2.40;;;;;;;9.03;100.00;99410.94;4991313;28;20034;-84
2023/10/28 00:19:50;;;;;;;6.00;2.20;;;;;;;9.03;100.00;99411.78;4991287;28;20026;-84
2023/10/28 00:22:17;;;;;;;5.82;2.15;;;;;;;9.05;100.00;99411.72;4991584;28;20041;-82
2023/10/28 00:24:42;;;;;;;4.40;2.05;;;;;;;9.06;100.00;99409.06;4990302;28;20026;-82
2023/10/28 00:27:09;;;;;;;4.75;2.00;;;;;;;9.08;100.00;99408.97;4992989;28;20347;-84
2023/10/28 00:29:34;;;;;;;8.48;2.10;;;;;;;9.10;100.00;99408.03;4992705;28;20377;-82
2023/10/28 00:32:00;;;;;;;4.55;1.83;;;;;;;9.11;100.00;99406.25;4990434;28;20026;-82
2023/10/28 00:34:25;;;;;;;5.93;1.73;;;;;;;9.14;100.00;99411.31;4991264;28;20111;-81
2023/10/28 00:36:51;;;;;;;5.30;2.00;;;;;;;9.15;100.00;99415.59;4990951;28;20035;-81
2023/10/28 00:39:16;;;;;;;6.25;1.90;;;;;;;9.17;100.00;99408.59;5001869;28;20128;-81
2023/10/28 00:41:42;;;;;;;3.58;1.90;;;;;;;9.18;100.00;99415.47;5029130;28;20527;-81
2023/10/28 00:44:08;;;;;;;7.85;2.03;;;;;;;9.20;100.00;99413.66;5028956;28;20474;-81
2023/10/28 00:46:33;;;;;;;4.72;1.70;;;;;;;9.21;100.00;99410.16;5013945;28;20017;-81
2023/10/28 00:48:59;;;;;;;6.50;1.90;;;;;;;9.24;100.00;99416.97;5025104;28;20453;-81
2023/10/28 00:51:24;;;;;;;6.22;1.80;;;;;;;9.26;100.00;99415.97;5030532;28;20071;-82
2023/10/28 00:53:51;;;;;;;7.40;1.73;;;;;;;9.27;100.00;99422.84;5029388;28;20033;-82
2023/10/28 00:56:18;;;;;;;6.03;1.73;;;;;;;9.29;100.00;99427.13;5030833;28;20021;-81
2023/10/28 00:58:45;;;;;;;4.10;1.67;;;;;;;9.29;100.00;99421.94;5026486;28;20025;-82
2023/10/28 01:01:13;;;;;;;5.40;1.83;;;;;;;9.29;100.00;99407.22;5027856;28;20029;-82
2023/10/28 01:03:40;;;;;;;5.80;1.80;;;;;;;9.30;100.00;99410.66;5009853;28;20025;-82
2023/10/28 01:06:09;;;;;;;2.85;1.45;;;;;;;9.32;100.00;99416.63;5026336;28;20017;-82
2023/10/28 01:08:35;;;;;;;4.75;1.60;;;;;;;9.33;100.00;99407.94;5007226;28;20095;-82
2023/10/28 01:11:01;;;;;;;4.07;1.40;;;;;;;9.33;100.00;99413.13;5030234;28;20025;-82
2023/10/28 01:13:27;;;;;;;3.20;1.42;;;;;;;9.35;100.00;99413.91;5014015;28;20017;-82
2023/10/28 01:15:52;;;;;;;4.10;1.50;;;;;;;9.35;100.00;99408.72;5026986;28;20263;-82
2023/10/28 01:18:18;;;;;;;2.50;1.40;;;;;;;9.36;100.00;99403.44;5027309;28;20021;-82
2023/10/28 01:20:44;;;;;;;4.45;1.27;;;;;;;9.39;100.00;99407.69;5027831;28;20026;-82
2023/10/28 01:23:10;;;;;;;4.03;1.70;;;;;;;9.38;100.00;99406.81;5027876;28;20033;-83
2023/10/28 01:25:35;;;;;;;4.00;1.35;;;;;;;9.38;100.00;99406.81;5026194;28;20032;-82
2023/10/28 01:28:01;;;;;;;3.75;1.30;;;;;;;9.39;100.00;99407.69;5026363;28;20029;-82
2023/10/28 01:30:27;;;;;;;2.65;1.20;;;;;;;9.40;100.00;99409.31;5031283;28;20061;-82
2023/10/28 01:32:52;;;;;;;3.38;1.25;;;;;;;9.41;100.00;99405.81;5031942;28;20060;-82
2023/10/28 01:35:17;;;;;;;3.25;1.23;;;;;;;9.40;100.00;99407.59;5031683;28;20056;-82
2023/10/28 01:37:43;;;;;;;4.95;1.20;;;;;;;9.41;100.00;99400.63;5031318;28;20135;-82
2023/10/28 01:40:14;;;;;;;4.05;1.25;;;;;;;9.43;100.00;99408.38;5028653;28;20080;-82
2023/10/28 01:42:41;;;;;;;2.65;1.15;;;;;;;9.42;100.00;99407.50;5030236;28;20029;-82
2023/10/28 01:45:07;;;;;;;3.15;1.20;;;;;;;9.42;100.00;99407.50;5031057;28;20068;-83
2023/10/28 01:47:33;;;;;;;2.92;1.20;;;;;;;9.44;100.00;99410.06;5030082;28;20045;-82
2023/10/28 01:49:58;;;;;;;2.70;1.08;;;;;;;9.43;100.00;99405.78;5029803;28;20022;-81
2023/10/28 01:52:24;;;;;;;3.63;1.10;;;;;;;9.42;100.00;99407.50;5030681;28;20029;-82
2023/10/28 01:54:50;;;;;;;2.00;1.00;;;;;;;9.43;100.00;99405.78;5029381;28;20393;-83
2023/10/28 01:57:15;;;;;;;3.67;0.90;;;;;;;9.43;100.00;99409.19;5031161;28;20120;-81
2023/10/28 01:59:40;;;;;;;3.53;1.00;;;;;;;9.42;100.00;99407.50;5030564;28;20044;-82
2023/10/28 02:02:07;;;;;;;2.80;1.00;;;;;;;9.44;100.00;99410.06;5030700;28;20033;-82
2023/10/28 02:04:33;;;;;;;2.67;0.90;;;;;;;9.44;100.00;99407.47;5030630;28;20119;-81
2023/10/28 02:06:59;;;;;;;2.25;1.00;;;;;;;9.44;100.00;99405.69;5030201;28;20017;-81
2023/10/28 02:09:26;;;;;;;3.15;1.00;;;;;;;9.44;100.00;99399.69;5031762;28;20095;-82
2023/10/28 02:11:52;;;;;;;3.25;1.00;;;;;;;9.44;100.00;99404.88;5013490;28;20403;-82
2023/10/28 02:14:18;;;;;;;2.55;0.90;;;;;;;9.43;100.00;99400.59;5028571;28;20033;-81
2023/10/28 02:16:43;;;;;;;1.60;0.93;;;;;;;9.43;100.00;99409.19;5032477;28;20079;-82
2023/10/28 02:19:09;;;;;;;3.22;1.10;;;;;;;9.42;100.00;99412.69;5033542;28;20541;-82
2023/10/28 02:21:35;;;;;;;3.22;0.90;;;;;;;9.42;100.00;99412.69;5033182;28;20035;-81
2023/10/28 02:24:01;;;;;;;2.80;1.00;;;;;;;9.43;100.00;99414.38;5033421;28;20085;-82
2023/10/28 02:26:26;;;;;;;2.97;0.82;;;;;;;9.43;100.00;99413.56;5033922;28;20057;-81
2023/10/28 02:28:51;;;;;;;3.80;0.88;;;;;;;9.42;100.00;99412.69;5033624;28;20056;-82
2023/10/28 02:31:17;;;;;;;2.25;0.75;;;;;;;9.41;100.00;99411.88;5032261;28;20537;-81
2023/10/28 02:33:42;;;;;;;1.63;0.60;;;;;;;9.41;100.00;99409.28;5015979;28;20025;-82
2023/10/28 02:36:08;;;;;;;1.67;0.82;;;;;;;9.40;100.00;99407.59;5033707;28;20164;-82
2023/10/28 02:38:34;;;;;;;2.22;0.77;;;;;;;9.39;100.00;99410.25;5032341;28;20021;-81
2023/10/28 02:41:00;;;;;;;1.80;0.68;;;;;;;9.40;100.00;99404.13;5029949;28;20094;-81
2023/10/28 02:43:25;;;;;;;1.90;0.60;;;;;;;9.39;100.00;99407.69;5032110;28;20160;-81
2023/10/28 02:45:51;;;;;;;2.15;0.73;;;;;;;9.38;100.00;99396.44;5033646;28;20051;-82
2023/10/28 02:48:16;;;;;;;2.28;0.80;;;;;;;9.38;100.00;99401.63;5031922;28;22363;-82
2023/10/28 02:50:41;;;;;;;1.77;0.75;;;;;;;9.36;100.00;99403.44;5032007;28;20048;-82
2023/10/28 02:53:07;;;;;;;1.33;0.80;;;;;;;9.37;100.00;99399.09;5031789;28;20025;-82
2023/10/28 02:55:35;;;;;;;2.45;0.90;;;;;;;9.35;100.00;99400.91;5029995;28;20025;-82
2023/10/28 02:58:01;;;;;;;2.65;0.80;;;;;;;9.36;100.00;99407.81;5015474;28;20372;-82
2023/10/28 03:00:26;;;;;;;1.30;0.60;;;;;;;9.38;100.00;99411.19;5031449;28;20025;-82
2023/10/28 03:02:52;;;;;;;1.30;0.60;;;;;;;9.34;100.00;99410.44;5029430;28;20112;-82
2023/10/28 03:05:20;;;;;;;2.33;0.85;;;;;;;9.34;100.00;99414.81;5031280;28;20037;-82
2023/10/28 03:07:45;;;;;;;2.42;0.57;;;;;;;9.33;100.00;99413.13;5030969;28;20396;-82
2023/10/28 03:10:11;;;;;;;2.65;0.80;;;;;;;9.34;100.00;99414.81;5031823;28;20033;-82
2023/10/28 03:12:36;;;;;;;2.20;0.70;;;;;;;9.35;100.00;99408.72;5030559;28;20393;-82
2023/10/28 03:15:02;;;;;;;1.73;0.80;;;;;;;9.35;100.00;99412.13;5032473;28;20461;-82
2023/10/28 03:17:28;;;;;;;1.05;0.80;;;;;;;9.34;100.00;99422.59;5031034;28;20033;-82
2023/10/28 03:19:53;;;;;;;1.75;0.77;;;;;;;9.34;100.00;99420.00;5031026;28;20029;-82
2023/10/28 03:22:18;;;;;;;1.20;0.70;;;;;;;9.34;100.00;99417.41;5031566;28;20028;-82
2023/10/28 03:24:44;;;;;;;1.30;0.70;;;;;;;9.34;100.00;99420.00;5031150;28;20033;-81
2023/10/28 03:27:09;;;;;;;1.60;0.80;;;;;;;9.34;100.00;99409.63;5013508;28;20079;-82
2023/10/28 03:29:34;;;;;;;2.72;0.90;;;;;;;9.34;100.00;99413.03;5013767;28;20117;-81
2023/10/28 03:32:00;;;;;;;3.13;1.00;;;;;;;9.34;100.00;99414.81;5030843;28;20025;-82
2023/10/28 03:34:26;;;;;;;3.10;0.98;;;;;;;9.33;100.00;99419.13;5030880;28;20025;-81
2023/10/28 03:36:51;;;;;;;1.63;0.80;;;;;;;9.35;100.00;99424.28;5032835;28;20082;-81
2023/10/28 03:39:17;;;;;;;2.55;1.08;;;;;;;9.35;100.00;99424.28;5029191;28;20102;-81
2023/10/28 03:41:44;;;;;;;1.88;1.10;;;;;;;9.34;100.00;99425.19;5030739;28;20048;-82
2023/10/28 03:44:10;;;;;;;2.08;1.10;;;;;;;9.31;100.00;99428.75;5031790;28;20033;-82
2023/10/28 03:46:36;;;;;;;1.35;0.90;;;;;;;9.30;100.00;99421.03;5033233;28;20472;-82
2023/10/28 03:49:01;;;;;;;3.90;1.10;;;;;;;9.29;100.00;99427.13;5030335;28;20025;-82
2023/10/28 03:51:27;;;;;;;2.22;1.02;;;;;;;9.25;100.00;99424.66;5030937;28;20451;-82
2023/10/28 03:53:53;;;;;;;1.88;1.08;;;;;;;9.20;100.00;99424.03;5031651;28;20025;-82
2023/10/28 03:56:18;;;;;;;2.00;1.02;;;;;;;9.17;100.00;99425.91;5029595;28;20094;-81
2023/10/28 03:58:43;;;;;;;2.95;1.05;;;;;;;9.14;100.00;99420.88;5030608;28;20051;-82
2023/10/28 04:01:08;;;;;;;1.92;1.10;;;;;;;9.12;100.00;99420.91;5030793;28;20037;-82
2023/10/28 04:03:34;;;;;;;2.33;0.90;;;;;;;9.10;100.00;99421.00;5031429;28;20029;-82
2023/10/28 04:06:00;;;;;;;1.45;0.80;;;;;;;9.09;100.00;99423.63;5032331;28;20040;-82
2023/10/28 04:08:25;;;;;;;2.45;1.20;;;;;;;9.07;100.00;99417.66;5032175;28;20044;-82
2023/10/28 04:10:50;;;;;;;2.20;1.00;;;;;;;9.08;100.00;99411.56;5032254;28;20040;-82
2023/10/28 04:13:15;;;;;;;1.88;1.10;;;;;;;9.07;100.00;99404.69;5030058;28;20040;-82
2023/10/28 04:15:41;;;;;;;1.77;1.10;;;;;;;9.08;100.00;99411.56;5031560;28;20021;-82
2023/10/28 04:18:06;;;;;;;2.08;1.08;;;;;;;9.08;100.00;99409.84;5032053;28;20037;-82
2023/10/28 04:20:32;;;;;;;2.55;1.13;;;;;;;9.09;100.00;99410.66;5032020;28;20029;-82
2023/10/28 04:22:58;;;;;;;1.58;0.90;;;;;;;9.09;100.00;99400.28;5012286;28;20029;-82
2023/10/28 04:25:23;;;;;;;2.67;0.90;;;;;;;9.10;100.00;99408.03;5031554;28;20036;-82
2023/10/28 04:27:49;;;;;;;2.05;1.08;;;;;;;9.10;100.00;99407.16;5032005;28;20060;-81
2023/10/28 04:30:15;;;;;;;3.72;1.00;;;;;;;9.10;100.00;99407.16;5014422;28;20029;-82
2023/10/28 04:32:40;;;;;;;1.85;0.90;;;;;;;9.11;100.00;99403.66;5030951;28;20472;-82
2023/10/28 04:35:06;;;;;;;1.52;1.27;;;;;;;9.12;100.00;99405.34;5031883;28;20033;-82
2023/10/28 04:37:31;;;;;;;2.88;1.00;;;;;;;9.12;100.00;99397.56;5028854;28;20029;-82
2023/10/28 04:39:57;;;;;;;0.90;0.73;;;;;;;9.14;100.00;99390.56;5029986;28;20111;-82
2023/10/28 04:42:22;;;;;;;4.13;1.40;;;;;;;9.15;100.00;99400.03;5029573;28;20033;-81
2023/10/28 04:44:47;;;;;;;2.00;0.90;;;;;;;9.15;100.00;99399.19;5030864;28;20411;-82
2023/10/28 04:47:13;;;;;;;2.58;1.10;;;;;;;9.16;100.00;99398.28;5029176;28;20041;-81
2023/10/28 04:49:39;;;;;;;3.25;1.45;;;;;;;9.16;100.00;99393.94;5031842;28;20112;-81
2023/10/28 04:52:08;;;;;;;2.55;1.13;;;;;;;9.16;100.00;99386.16;5027913;28;20109;-81
2023/10/28 04:54:33;;;;;;;1.55;1.08;;;;;;;9.16;100.00;99391.34;5013227;28;20025;-82
2023/10/28 04:57:00;;;;;;;1.83;0.90;;;;;;;9.16;100.00;99399.13;5031615;28;20022;-82
2023/10/28 04:59:25;;;;;;;1.75;1.10;;;;;;;9.16;100.00;99391.34;5013851;28;20025;-81
2023/10/28 05:01:51;;;;;;;2.20;1.05;;;;;;;9.15;100.00;99384.47;5028601;28;20036;-81
2023/10/28 05:04:16;;;;;;;3.40;1.10;;;;;;;9.15;100.00;99384.47;5033258;28;20029;-82
2023/10/28 05:06:41;;;;;;;2.47;1.10;;;;;;;9.16;100.00;99386.16;5033063;28;20087;-82
2023/10/28 05:09:07;;;;;;;1.75;1.10;;;;;;;9.16;100.00;99386.16;5015143;28;20037;-82
2023/10/28 05:11:32;;;;;;;4.00;1.25;;;;;;;9.17;100.00;99386.97;5034902;28;20029;-82
2023/10/28 05:13:57;;;;;;;4.30;1.30;;;;;;;9.16;100.00;99385.28;5033988;28;20388;-82
2023/10/28 05:16:23;;;;;;;2.28;1.08;;;;;;;9.16;100.00;99383.56;5033649;28;20072;-81
2023/10/28 05:18:49;;;;;;;2.20;1.20;;;;;;;9.16;100.00;99378.38;5033377;28;20036;-82
2023/10/28 05:21:15;;;;;;;1.40;1.08;;;;;;;9.17;100.00;99381.78;5034639;28;20036;-82
2023/10/28 05:23:41;;;;;;;2.80;1.10;;;;;;;9.16;100.00;99375.78;5033680;28;20036;-82
2023/10/28 05:26:07;;;;;;;3.70;1.00;;;;;;;9.18;100.00;99383.47;5033407;28;20021;-82
2023/10/28 05:28:32;;;;;;;3.15;1.20;;;;;;;9.18;100.00;99381.75;5031882;28;20036;-82
2023/10/28 05:30:57;;;;;;;3.08;1.08;;;;;;;9.18;100.00;99383.47;5032517;28;20041;-82
2023/10/28 05:33:23;;;;;;;1.50;1.00;;;;;;;9.18;100.00;99384.34;5034331;28;20029;-84
2023/10/28 05:35:51;;;;;;;4.07;1.33;;;;;;;9.20;100.00;99386.84;5033821;28;20033;-82
2023/10/28 05:38:17;;;;;;;2.00;1.10;;;;;;;9.20;100.00;99387.72;5033624;28;20064;-81
2023/10/28 05:40:42;;;;;;;2.35;0.98;;;;;;;9.18;100.00;99379.16;5016474;28;20499;-82
2023/10/28 05:43:08;;;;;;;4.20;1.20;;;;;;;9.20;100.00;99385.13;5034030;28;20087;-82
2023/10/28 05:45:33;;;;;;;2.30;1.20;;;;;;;9.20;100.00;99382.53;5032528;28;20152;-82
2023/10/28 05:47:58;;;;;;;3.42;1.30;;;;;;;9.20;100.00;99382.53;5032193;28;20040;-82
2023/10/28 05:50:24;;;;;;;2.85;1.05;;;;;;;9.21;100.00;99392.00;5031336;28;20025;-82
2023/10/28 05:52:49;;;;;;;3.38;1.35;;;;;;;9.22;100.00;99390.22;5033701;28;20029;-82
2023/10/28 05:55:14;;;;;;;3.25;1.25;;;;;;;9.20;100.00;99392.91;5014384;28;20033;-82
2023/10/28 05:57:40;;;;;;;1.92;1.00;;;;;;;9.21;100.00;99396.31;5032481;28;20169;-82
2023/10/28 06:00:10;;;;;;;2.63;1.30;;;;;;;9.21;100.00;99404.09;5034661;28;20049;-83
2023/10/28 06:02:38;;;;;;;3.47;1.20;;;;;;;9.20;100.00;99400.69;5016281;28;20484;-82
2023/10/28 06:05:05;;;;;;;3.30;1.40;;;;;;;9.21;100.00;99404.09;5032118;28;20087;-82
2023/10/28 06:07:31;;;;;;;3.75;1.38;;;;;;;9.23;100.00;99397.94;5037209;28;20530;-82
2023/10/28 06:09:56;;;;;;;4.05;1.50;;;;;;;9.23;100.00;99403.13;5043326;28;20021;-82
2023/10/28 06:12:21;;;;;;;4.00;1.70;;;;;;;9.23;100.00;99403.13;5041436;28;20143;-82
2023/10/28 06:14:46;;;;;;;2.53;1.20;;;;;;;9.23;100.00;99407.47;5037818;28;20036;-82
2023/10/28 06:17:13;;;;;;;3.30;1.50;;;;;;;9.23;100.00;99400.53;5033848;28;20022;-82
2023/10/28 06:19:40;;;;;;;5.03;1.50;;;;;;;9.23;100.00;99410.09;5021245;28;20032;-82
2023/10/28 06:22:06;;;;;;;3.15;1.30;;;;;;;9.21;100.00;99404.97;5016272;28;20024;-82
2023/10/28 06:24:31;;;;;;;3.97;1.65;;;;;;;9.23;100.00;99408.31;5033834;28;20025;-82
2023/10/28 06:26:57;;;;;;;4.18;1.40;;;;;;;9.24;100.00;99415.19;5032716;28;20504;-82
2023/10/28 06:29:23;;;;;;;3.80;1.52;;;;;;;9.24;100.00;99411.75;5032804;28;20507;-82
2023/10/28 06:31:48;;;;;;;2.42;1.50;;;;;;;9.25;100.00;99416.06;5015478;28;20029;-82
2023/10/28 06:34:13;;;;;;;3.67;1.25;;;;;;;9.24;100.00;99417.78;5032631;28;20048;-82
2023/10/28 06:36:40;;;;;;;2.95;1.30;;;;;;;9.27;100.00;99416.81;5013391;28;20022;-82
2023/10/28 06:39:08;;;;;;;5.28;1.20;;;;;;;9.26;100.00;99418.56;5032624;28;20489;-82
2023/10/28 06:41:34;;;;;;;4.95;1.30;;;;;;;9.25;100.00;99411.69;5015047;28;20029;-82
2023/10/28 06:44:02;;;;;;;4.57;1.52;;;;;;;9.27;100.00;99419.44;5031242;28;20048;-82
2023/10/28 06:46:28;;;;;;;3.35;1.30;;;;;;;9.30;100.00;99423.63;5012871;28;20064;-82
2023/10/28 06:48:53;;;;;;;4.70;1.40;;;;;;;9.31;100.00;99420.94;5030534;28;20029;-83
2023/10/28 06:51:19;;;;;;;3.42;1.20;;;;;;;9.31;100.00;99415.75;5031000;28;20045;-82
2023/10/28 06:53:44;;;;;;;4.18;1.15;;;;;;;9.33;100.00;99421.75;5031116;28;20053;-82
2023/10/28 06:56:11;;;;;;;3.28;1.20;;;;;;;9.34;100.00;99420.00;5030182;28;20022;-83
2023/10/28 06:58:37;;;;;;;3.90;1.25;;;;;;;9.35;100.00;99416.50;5012094;28;20065;-82
2023/10/28 07:01:04;;;;;;;2.88;1.20;;;;;;;9.36;100.00;99410.41;5029934;28;20037;-83
2023/10/28 07:03:29;;;;;;;3.10;1.20;;;;;;;9.37;100.00;99409.50;5013353;28;20053;-83
2023/10/28 07:05:55;;;;;;;2.83;1.13;;;;;;;9.38;100.00;99409.41;5024652;28;20021;-83
2023/10/28 07:08:21;;;;;;;2.55;1.40;;;;;;;9.39;100.00;99416.28;5031066;28;20104;-82
2023/10/28 07:10:47;;;;;;;2.33;1.10;;;;;;;9.39;100.00;99410.25;5031595;28;20116;-83
2023/10/28 07:13:12;;;;;;;4.63;1.38;;;;;;;9.40;100.00;99414.53;5032920;28;20013;-83
2023/10/28 07:15:38;;;;;;;3.60;1.20;;;;;;;9.40;100.00;99410.19;5043389;28;20076;-82
2023/10/28 07:18:05;;;;;;;3.30;1.30;;;;;;;9.44;100.00;99410.06;5031345;28;20457;-82
2023/10/28 07:20:30;;;;;;;3.38;1.33;;;;;;;9.43;100.00;99414.38;5034810;28;20021;-83
2023/10/28 07:22:56;;;;;;;2.85;1.00;;;;;;;9.44;100.00;99426.47;5028670;28;20098;-84
2023/10/28 07:25:21;;;;;;;2.75;1.05;;;;;;;9.45;100.00;99420.38;5032770;28;20092;-83
2023/10/28 07:27:46;;;;;;;2.85;1.20;;;;;;;9.46;100.00;99424.66;5032059;28;20024;-82
2023/10/28 07:30:12;;;;;;;2.83;1.02;;;;;;;9.47;100.00;99434.13;5013292;28;20029;-83
2023/10/28 07:32:39;;;;;;;2.75;1.00;;;;;;;9.50;100.00;99434.00;5031822;28;20483;-83
2023/10/28 07:35:06;;;;;;;3.00;1.10;;;;;;;9.51;100.00;99432.22;5028835;28;20169;-83
2023/10/28 07:37:32;;;;;;;3.00;1.10;;;;;;;9.53;100.00;99436.47;5010363;28;20025;-83
2023/10/28 07:39:57;;;;;;;2.85;1.00;;;;;;;9.54;100.00;99438.16;5031331;28;20132;-83
2023/10/28 07:42:23;;;;;;;1.98;0.90;;;;;;;9.56;100.00;99441.50;5031146;28;20030;-83
2023/10/28 07:44:49;;;;;;;3.95;1.20;;;;;;;9.55;100.00;99432.03;5034788;28;20044;-82
2023/10/28 07:47:14;;;;;;;2.13;1.00;;;;;;;9.57;100.00;99432.78;5033127;28;20076;-82
2023/10/28 07:49:39;;;;;;;2.03;0.93;;;;;;;9.59;100.00;99439.66;5032181;28;20395;-83
2023/10/28 07:52:05;;;;;;;2.60;1.20;;;;;;;9.61;100.00;99435.25;5030241;28;20507;-83
2023/10/28 07:54:30;;;;;;;3.80;1.02;;;;;;;9.65;100.00;99444.59;5030187;28;20029;-82
2023/10/28 07:56:55;;;;;;;2.05;0.95;;;;;;;9.69;100.00;99451.34;5029265;28;20040;-82
2023/10/28 07:59:21;;;;;;;3.05;0.98;;;;;;;9.73;100.00;99450.31;5030229;28;20100;-81
2023/10/28 08:01:46;;;;;;;3.80;0.90;;;;;;;9.77;100.00;99444.03;5029977;28;20036;-84
2023/10/28 08:04:13;;;;;;;2.53;0.90;;;;;;;9.80;100.00;99443.91;5030075;28;20096;-82
2023/10/28 08:06:40;;;;;;;1.48;0.80;;;;;;;9.83;100.00;99454.16;5014430;28;20097;-83
2023/10/28 08:09:06;;;;;;;2.97;0.90;;;;;;;9.88;100.00;99446.16;5031227;28;20033;-82
2023/10/28 08:11:31;;;;;;;4.60;0.93;;;;;;;9.94;100.00;99460.63;5032062;28;20086;-82
2023/10/28 08:13:56;;;;;;;2.85;0.90;;;;;;;9.98;100.00;99454.38;5029626;28;20029;-83
2023/10/28 08:16:23;;;;;;;3.10;0.95;;;;;;;10.02;100.00;99456.75;5031564;28;20048;-83
2023/10/28 08:18:49;;;;;;;2.03;0.90;;;;;;;10.06;100.00;99460.09;5032618;28;20528;-85
2023/10/28 08:21:16;;;;;;;4.97;1.23;;;;;;;10.12;100.00;99464.16;5029979;28;20040;-82
2023/10/28 08:23:41;;;;;;;4.90;1.02;;;;;;;10.17;100.00;99463.03;5031561;28;20039;-83
2023/10/28 08:26:11;;;;;;;4.47;1.25;;;;;;;10.22;100.00;99467.16;5031814;28;20524;-84
2023/10/28 08:28:37;;;;;;;3.97;1.00;;;;;;;10.25;100.00;99467.00;5037262;28;20029;-84
2023/10/28 08:31:07;;;;;;;2.85;0.80;;;;;;;10.30;100.00;99467.63;5028616;28;20038;-84
2023/10/28 08:33:34;;;;;;;3.58;1.13;;;;;;;10.35;100.00;99470.00;5029649;28;20040;-83
2023/10/28 08:35:59;;;;;;;4.18;1.10;;;;;;;10.36;100.00;99482.09;5025177;28;20108;-83
2023/10/28 08:38:24;;;;;;;2.60;0.90;;;;;;;10.38;100.00;99475.97;5026580;28;20170;-83
2023/10/28 08:40:50;;;;;;;2.30;0.93;;;;;;;10.40;100.00;99481.94;5029147;28;20505;-83
2023/10/28 08:43:17;;;;;;;4.43;1.00;;;;;;;10.41;100.00;99486.22;5031761;28;20067;-83
2023/10/28 08:45:45;;;;;;;2.63;0.85;;;;;;;10.43;100.00;99484.38;5009563;28;20067;-83
2023/10/28 08:48:13;;;;;;;2.05;0.80;;;;;;;10.47;100.00;99493.72;5008211;28;20033;-83
2023/10/28 08:50:40;;;;;;;5.78;0.85;;;;;;;10.51;100.00;99490.97;5028212;28;20037;-83
2023/10/28 08:53:06;;;;;;;2.65;0.80;;;;;;;10.52;100.00;99496.09;5027552;28;20033;-82
2023/10/28 08:55:35;;;;;;;3.40;0.90;;;;;;;10.57;100.00;99493.31;5011480;28;20088;-82
2023/10/28 08:58:01;;;;;;;3.83;0.98;;;;;;;10.61;100.00;99508.69;5027324;28;20029;-83
2023/10/28 09:00:29;;;;;;;3.45;1.10;;;;;;;10.64;100.00;99499.88;5027812;28;20017;-84
2023/10/28 09:02:56;;;;;;;2.13;1.00;;;;;;;10.68;100.00;99504.03;5011991;28;20022;-82
2023/10/28 09:05:21;;;;;;;4.55;1.08;;;;;;;10.73;100.00;99507.25;5024953;28;20025;-82
2023/10/28 09:07:47;;;;;;;2.67;1.00;;;;;;;10.78;100.00;99501.81;5028133;28;20388;-82
2023/10/28 09:10:13;;;;;;;4.35;0.90;;;;;;;10.83;100.00;99506.81;5024843;28;20484;-83
2023/10/28 09:12:39;;;;;;;4.57;1.13;;;;;;;10.86;100.00;99511.88;5026818;28;20025;-84
2023/10/28 09:15:06;;;;;;;3.28;0.82;;;;;;;10.89;100.00;99514.31;5024799;28;20084;-84
2023/10/28 09:17:31;;;;;;;4.30;1.02;;;;;;;10.91;100.00;99515.91;5014427;28;20025;-83
2023/10/28 09:19:56;;;;;;;4.88;1.10;;;;;;;10.96;100.00;99517.47;5024721;28;20376;-83
2023/10/28 09:22:26;;;;;;;2.72;1.02;;;;;;;10.97;100.00;99519.97;5024813;28;20045;-84
2023/10/28 09:24:53;;;;;;;3.53;0.93;;;;;;;10.98;100.00;99516.47;5024578;28;20035;-84
2023/10/28 09:27:19;;;;;;;4.15;1.20;;;;;;;11.03;100.00;99514.50;5008016;28;20041;-83
2023/10/28 09:29:45;;;;;;;3.88;1.02;;;;;;;11.10;100.00;99519.41;5024480;28;20152;-82
2023/10/28 09:32:10;;;;;;;3.20;0.82;;;;;;;11.15;100.00;99517.38;5028112;28;20037;-81
2023/10/28 09:34:39;;;;;;;3.30;0.90;;;;;;;11.17;100.00;99513.81;5028381;28;20405;-82
2023/10/28 09:37:08;;;;;;;3.55;0.90;;;;;;;11.22;100.00;99509.19;5029313;28;20100;-82
2023/10/28 09:39:35;;;;;;;1.98;1.00;;;;;;;11.26;100.00;99515.13;5010584;28;20053;-82
2023/10/28 09:42:01;;;;;;;4.05;1.10;;;;;;;11.31;100.00;99513.09;5026158;28;20037;-84
2023/10/28 09:44:27;;;;;;;3.53;0.90;;;;;;;11.36;100.00;99513.72;5026301;28;20428;-84
2023/10/28 09:46:59;;;;;;;3.58;1.20;;;;;;;11.44;100.00;99512.50;5026566;28;20072;-84
2023/10/28 09:49:28;;;;;;;5.22;0.88;;;;;;;11.47;100.00;99514.94;5026478;28;20022;-84
2023/10/28 09:51:58;;;;;;;3.35;1.20;;;;;;;11.50;100.00;99517.38;5030299;28;20032;-83
2023/10/28 09:54:29;;;;;;;2.53;0.80;;;;;;;11.50;100.00;99515.63;5026005;28;20434;-84
2023/10/28 09:56:59;;;;;;;4.07;1.10;;;;;;;11.53;100.00;99518.06;5011374;28;20029;-83
2023/10/28 09:59:26;;;;;;;2.67;1.08;;;;;;;11.55;100.00;99515.41;5026828;28;20087;-83
2023/10/28 10:02:18;;;;;;;4.68;0.80;;;;;;;11.61;100.00;99520.31;5027981;28;20179;-83
2023/10/28 10:04:55;;;;;;;4.75;1.10;;;;;;;11.60;100.00;99516.00;5031231;28;20128;-82
2023/10/28 10:07:21;;;;;;;2.60;0.95;;;;;;;11.59;100.00;99509.13;5034247;28;20025;-84
2023/10/28 10:09:47;;;;;;;3.47;0.80;;;;;;;11.62;100.00;99510.72;5015003;28;20145;-83
2023/10/28 10:12:13;;;;;;;3.28;0.77;;;;;;;11.63;100.00;99518.44;5030456;28;20124;-83
2023/10/28 10:14:45;;;;;;;3.25;0.82;;;;;;;11.65;100.00;99514.00;5031541;28;20033;-83
2023/10/28 10:17:28;;;;;;;2.53;0.80;;;;;;;11.69;100.00;99510.31;5016250;28;20033;-83
2023/10/28 10:19:59;;;;;;;2.60;0.80;;;;;;;11.73;100.00;99518.81;5030561;28;20035;-83
2023/10/28 10:22:29;;;;;;;6.28;1.15;;;;;;;11.76;100.00;99517.81;5030624;28;20045;-83
2023/10/28 10:24:54;;;;;;;3.97;1.02;;;;;;;11.77;100.00;99529.94;5028964;28;20021;-83
2023/10/28 10:27:39;;;;;;;3.95;0.95;;;;;;;11.83;100.00;99524.38;5028439;28;20053;-83
2023/10/28 10:30:06;;;;;;;3.13;0.90;;;;;;;11.85;100.00;99527.75;5011335;28;20056;-82
2023/10/28 10:32:44;;;;;;;3.67;0.93;;;;;;;11.91;100.00;99532.66;5028552;28;20026;-82
2023/10/28 10:35:26;;;;;;;3.80;0.80;;;;;;;11.94;99.63;99537.72;5028150;28;20040;-83
2023/10/28 10:38:02;;;;;;;4.28;1.17;;;;;;;11.98;99.89;99534.03;5026858;28;20033;-82
2023/10/28 10:40:31;;;;;;;4.22;1.40;;;;;;;11.99;98.30;99535.72;5028052;28;20053;-82
2023/10/28 10:43:03;;;;;;;5.30;0.80;;;;;;;12.03;97.48;99535.56;5026772;28;20032;-82
2023/10/28 10:45:28;;;;;;;3.20;0.70;;;;;;;12.07;96.45;99537.91;5013265;28;20474;-81
2023/10/28 10:47:53;;;;;;;3.30;0.80;;;;;;;12.09;96.65;99535.25;5029875;28;20029;-83
2023/10/28 10:50:20;;;;;;;4.70;1.10;;;;;;;12.10;95.47;99526.50;5029657;28;20034;-82
2023/10/28 10:52:48;;;;;;;5.70;1.00;;;;;;;12.11;94.08;99528.19;5031157;28;20500;-84
2023/10/28 10:55:23;;;;;;;4.22;1.08;;;;;;;12.14;94.60;99528.00;5028561;28;20033;-82
2023/10/28 10:57:51;;;;;;;2.83;0.80;;;;;;;12.15;93.95;99540.09;5031729;28;20029;-82
2023/10/28 11:00:18;;;;;;;2.92;0.80;;;;;;;12.14;93.90;99525.38;5024635;28;20075;-83
2023/10/28 11:02:45;;;;;;;4.90;0.93;;;;;;;12.20;93.31;99539.88;5026678;28;20060;-84
2023/10/28 11:05:12;;;;;;;2.95;0.98;;;;;;;12.24;92.71;99538.78;5028275;28;20026;-83
2023/10/28 11:07:38;;;;;;;4.40;1.10;;;;;;;12.27;91.50;99539.47;5010029;28;20025;-83
2023/10/28 11:10:08;;;;;;;5.32;1.10;;;;;;;12.31;91.58;99529.72;5027966;28;20025;-82
2023/10/28 11:12:34;;;;;;;3.65;0.90;;;;;;;12.32;90.92;99528.78;5030628;28;20456;-83
2023/10/28 11:14:59;;;;;;;6.20;1.17;;;;;;;12.29;90.58;99527.19;5026246;28;20112;-84
2023/10/28 11:17:25;;;;;;;5.43;0.90;;;;;;;12.28;90.74;99525.50;5027642;28;20036;-84
2023/10/28 11:19:50;;;;;;;4.90;0.98;;;;;;;12.29;90.71;99515.91;5025748;28;20022;-83
2023/10/28 11:22:16;;;;;;;3.75;0.95;;;;;;;12.32;91.56;99522.72;5028027;28;20435;-82
2023/10/28 11:24:42;;;;;;;3.63;0.80;;;;;;;12.35;91.64;99514.72;5025624;28;20021;-83
2023/10/28 11:27:08;;;;;;;4.20;0.90;;;;;;;12.36;90.65;99514.66;5029202;28;20063;-84